Time;durP1;ratioP1;P1;durP2;ratioP2;P2;SDS_P1;SDS_P2;PMS_P1;PMS_P2;Temp;Humidity;BMP_temperature;BMP_pressure;BME280_temperature;BME280_humidity;BME280_pressure;Samples;Min_cycle;Max_cycle;Signal;HPM_P1;HPM_P2
2023/03/24 00:02:15;;;;;;;15.18;9.50;;;20.10;49.20;;;;;;4937080;29;20250;-83
2023/03/24 00:04:42;;;;;;;13.65;9.07;;;20.10;49.30;;;;;;4936552;29;20694;-83
2023/03/24 00:07:13;;;;;;;13.23;9.57;;;20.00;49.30;;;;;;4937941;29;20215;-83
2023/03/24 00:09:40;;;;;;;15.63;8.75;;;20.00;49.30;;;;;;4968977;28;20633;-83
2023/03/24 00:12:08;;;;;;;13.13;8.55;;;20.00;49.40;;;;;;4968672;28;20214;-83
2023/03/24 00:14:37;;;;;;;15.35;9.38;;;20.00;49.50;;;;;;4936343;29;20250;-83
2023/03/24 00:17:08;;;;;;;12.77;8.45;;;20.00;49.50;;;;;;4968748;28;20213;-83
2023/03/24 00:19:37;;;;;;;15.93;9.65;;;20.00;49.60;;;;;;4952698;29;20210;-83
2023/03/24 00:22:04;;;;;;;13.90;8.75;;;20.00;49.70;;;;;;4936772;29;20298;-81
2023/03/24 00:24:32;;;;;;;14.75;8.98;;;20.00;49.70;;;;;;4937963;29;20227;-81
2023/03/24 00:26:59;;;;;;;12.88;8.40;;;19.90;49.60;;;;;;4937868;29;20291;-81
2023/03/24 00:29:27;;;;;;;12.60;8.57;;;19.90;49.60;;;;;;4937432;29;20199;-82
2023/03/24 00:31:54;;;;;;;15.63;9.27;;;19.90;49.70;;;;;;4937088;29;20678;-83
2023/03/24 00:34:23;;;;;;;12.65;8.55;;;19.90;49.70;;;;;;4937025;29;20222;-81
2023/03/24 00:36:51;;;;;;;13.13;8.70;;;19.90;49.80;;;;;;4936553;29;20206;-82
2023/03/24 00:39:18;;;;;;;13.98;9.00;;;19.90;49.80;;;;;;4936815;29;20666;-81
2023/03/24 00:41:46;;;;;;;12.77;7.78;;;19.90;49.90;;;;;;4937226;29;20306;-81
2023/03/24 00:44:16;;;;;;;11.55;8.05;;;19.90;49.80;;;;;;4969209;28;20290;-81
2023/03/24 00:46:44;;;;;;;9.45;7.57;;;19.90;49.80;;;;;;4936429;29;20210;-81
2023/03/24 00:49:12;;;;;;;10.45;7.82;;;19.90;49.90;;;;;;4936130;29;20218;-83
2023/03/24 00:51:41;;;;;;;11.63;8.25;;;19.90;49.90;;;;;;4936763;29;20199;-81
2023/03/24 00:54:09;;;;;;;11.55;7.97;;;19.80;49.90;;;;;;4967689;28;20215;-81
2023/03/24 00:56:38;;;;;;;11.63;7.55;;;19.80;49.90;;;;;;4935830;29;20258;-81
2023/03/24 00:59:08;;;;;;;12.07;7.80;;;19.80;49.90;;;;;;4936516;29;20211;-81
2023/03/24 01:01:37;;;;;;;11.15;8.18;;;19.80;50.00;;;;;;4969209;28;20199;-81
2023/03/24 01:04:05;;;;;;;11.02;7.07;;;19.80;50.00;;;;;;4936463;29;20219;-81
2023/03/24 01:06:35;;;;;;;11.05;7.70;;;19.80;49.90;;;;;;4968757;28;20314;-81
2023/03/24 01:09:04;;;;;;;11.40;7.20;;;19.80;49.80;;;;;;4968470;28;20226;-81
2023/03/24 01:11:36;;;;;;;10.20;6.95;;;19.80;49.90;;;;;;4936007;29;20207;-81
2023/03/24 01:14:04;;;;;;;11.52;7.65;;;19.80;49.90;;;;;;4967793;28;20390;-81
2023/03/24 01:16:31;;;;;;;10.70;7.50;;;19.70;49.80;;;;;;4935933;29;20214;-81
2023/03/24 01:18:58;;;;;;;10.00;6.80;;;19.70;49.80;;;;;;4968114;28;20214;-81
2023/03/24 01:21:25;;;;;;;10.88;7.28;;;19.70;49.80;;;;;;4937648;29;20243;-81
2023/03/24 01:23:52;;;;;;;11.95;7.82;;;19.70;49.80;;;;;;4967842;28;20302;-81
2023/03/24 01:26:21;;;;;;;9.82;6.55;;;19.70;49.80;;;;;;4968307;28;20223;-81
2023/03/24 01:28:48;;;;;;;8.40;6.90;;;19.70;49.80;;;;;;4937221;29;20219;-81
2023/03/24 01:31:15;;;;;;;9.70;7.07;;;19.70;49.80;;;;;;4939630;29;20199;-81
2023/03/24 01:33:43;;;;;;;9.57;6.97;;;19.60;49.80;;;;;;4938868;29;20246;-81
2023/03/24 01:36:10;;;;;;;9.63;6.95;;;19.60;49.80;;;;;;4939883;29;20196;-81
2023/03/24 01:38:37;;;;;;;9.23;6.80;;;19.60;49.90;;;;;;4939194;29;20283;-81
2023/03/24 01:41:05;;;;;;;9.80;7.18;;;19.60;49.90;;;;;;4971117;28;20238;-81
2023/03/24 01:43:35;;;;;;;10.63;6.75;;;19.60;49.90;;;;;;4939240;29;20593;-81
2023/03/24 01:46:16;;;;;;;8.63;6.63;;;19.60;49.90;;;;;;4971668;28;20204;-81
2023/03/24 01:48:46;;;;;;;9.77;6.50;;;19.60;49.90;;;;;;4971854;28;20222;-80
2023/03/24 01:51:15;;;;;;;8.10;6.38;;;19.50;49.80;;;;;;4939450;29;20203;-80
2023/03/24 01:53:44;;;;;;;11.02;6.97;;;19.50;49.80;;;;;;4939911;29;20220;-81
2023/03/24 01:56:11;;;;;;;9.95;6.07;;;19.50;49.80;;;;;;4939283;29;20266;-83
2023/03/24 01:58:46;;;;;;;9.65;6.82;;;19.50;49.80;;;;;;4939837;29;20199;-83
2023/03/24 02:01:28;;;;;;;8.57;6.40;;;19.50;49.80;;;;;;4942036;29;20211;-83
2023/03/24 02:04:26;;;;;;;8.00;6.15;;;19.40;49.70;;;;;;4936734;29;20255;-83
2023/03/24 02:07:02;;;;;;;10.57;6.60;;;19.50;49.80;;;;;;4940959;29;20199;-83
2023/03/24 02:09:29;;;;;;;10.32;6.68;;;19.40;49.80;;;;;;4972543;28;20232;-83
2023/03/24 02:11:57;;;;;;;7.88;6.03;;;19.40;49.80;;;;;;4940613;29;20200;-82
2023/03/24 02:14:25;;;;;;;7.63;5.68;;;19.40;49.80;;;;;;4972436;28;20233;-81
2023/03/24 02:17:13;;;;;;;9.63;6.32;;;19.40;49.80;;;;;;4940936;29;20195;-81
2023/03/24 02:20:17;;;;;;;7.18;6.03;;;19.40;49.80;;;;;;4939223;29;20274;-81
2023/03/24 02:23:08;;;;;;;9.73;6.30;;;19.40;50.00;;;;;;4940078;29;20207;-81
2023/03/24 02:26:25;;;;;;;7.07;5.65;;;19.40;50.00;;;;;;4939850;29;20302;-81
2023/03/24 02:28:59;;;;;;;7.35;6.00;;;19.40;50.10;;;;;;4972268;28;20267;-81
2023/03/24 02:32:00;;;;;;;7.05;5.70;;;19.40;50.10;;;;;;4939773;29;20192;-81
2023/03/24 02:34:58;;;;;;;7.88;5.80;;;19.30;50.00;;;;;;4938711;29;20672;-80
2023/03/24 02:37:52;;;;;;;8.15;5.88;;;19.30;50.00;;;;;;4933331;29;20211;-80
2023/03/24 02:40:39;;;;;;;7.30;5.65;;;19.30;50.10;;;;;;4969507;28;20235;-80
2023/03/24 02:43:18;;;;;;;7.40;5.50;;;19.30;50.00;;;;;;4970956;28;20187;-80
2023/03/24 02:45:50;;;;;;;7.88;5.60;;;19.30;50.00;;;;;;4939154;29;20207;-82
2023/03/24 02:48:21;;;;;;;7.05;5.40;;;19.30;50.00;;;;;;4972424;28;20246;-82
2023/03/24 02:50:51;;;;;;;7.53;5.70;;;19.30;50.10;;;;;;4939793;29;20195;-82
2023/03/24 02:53:20;;;;;;;7.35;5.90;;;19.30;50.70;;;;;;4938650;29;20215;-81
2023/03/24 02:56:10;;;;;;;6.47;5.35;;;19.30;50.10;;;;;;4939952;29;20190;-81
2023/03/24 02:58:40;;;;;;;5.97;5.32;;;19.30;50.10;;;;;;4940490;29;20219;-81
2023/03/24 03:01:10;;;;;;;9.65;5.82;;;19.30;50.10;;;;;;4940996;29;20207;-81
2023/03/24 03:04:17;;;;;;;8.60;5.82;;;19.30;50.10;;;;;;4940302;29;20215;-81
2023/03/24 03:06:47;;;;;;;7.78;5.43;;;19.30;50.20;;;;;;4940391;29;20220;-81
2023/03/24 03:09:17;;;;;;;7.40;5.38;;;19.20;50.10;;;;;;4940527;29;20298;-81
2023/03/24 03:11:47;;;;;;;8.05;5.55;;;19.30;50.20;;;;;;4940988;29;20242;-81
2023/03/24 03:14:15;;;;;;;7.82;5.07;;;19.20;50.20;;;;;;4973546;28;20330;-81
2023/03/24 03:16:45;;;;;;;8.00;5.38;;;19.20;50.80;;;;;;4941046;29;20274;-81
2023/03/24 03:19:16;;;;;;;7.93;5.43;;;19.20;50.20;;;;;;4925781;29;20195;-81
2023/03/24 03:21:46;;;;;;;7.28;5.00;;;19.20;50.20;;;;;;4941010;29;20199;-81
2023/03/24 03:24:15;;;;;;;7.18;4.95;;;19.20;50.10;;;;;;4941406;29;20223;-81
2023/03/24 03:26:42;;;;;;;5.72;4.88;;;19.20;50.20;;;;;;4940567;29;20206;-81
2023/03/24 03:29:15;;;;;;;6.22;4.70;;;19.20;50.30;;;;;;4972567;28;20303;-81
2023/03/24 03:31:44;;;;;;;7.43;5.38;;;19.20;50.30;;;;;;4940258;29;20262;-81
2023/03/24 03:34:13;;;;;;;7.65;5.65;;;19.20;50.30;;;;;;4940954;29;20223;-81
2023/03/24 03:36:45;;;;;;;6.32;5.10;;;19.20;50.20;;;;;;4941347;29;20215;-81
2023/03/24 03:39:14;;;;;;;7.32;4.93;;;19.20;50.30;;;;;;4941837;29;20228;-81
2023/03/24 03:41:42;;;;;;;6.90;4.85;;;19.20;50.30;;;;;;4937273;29;20215;-81
2023/03/24 03:44:09;;;;;;;6.60;4.70;;;19.10;50.20;;;;;;4940754;29;20789;-81
2023/03/24 03:46:40;;;;;;;6.60;5.00;;;19.20;50.40;;;;;;4987496;28;20210;-81
2023/03/24 03:49:10;;;;;;;7.10;5.22;;;19.20;51.00;;;;;;4956058;29;20223;-81
2023/03/24 03:51:37;;;;;;;6.18;4.38;;;19.20;50.40;;;;;;4957372;29;20228;-81
2023/03/24 03:54:06;;;;;;;6.15;4.95;;;19.20;50.40;;;;;;4949908;29;20219;-81
2023/03/24 03:56:34;;;;;;;7.43;5.38;;;19.10;50.30;;;;;;4944380;29;20203;-81
2023/03/24 03:59:24;;;;;;;5.68;4.68;;;19.10;50.30;;;;;;4944321;29;20183;-81
2023/03/24 04:01:53;;;;;;;7.88;5.05;;;19.10;50.40;;;;;;4944166;29;20203;-81
2023/03/24 04:04:55;;;;;;;5.20;4.60;;;19.10;50.40;;;;;;4942962;29;20231;-81
2023/03/24 04:07:40;;;;;;;6.25;4.63;;;19.10;50.40;;;;;;4943840;29;20195;-81
2023/03/24 04:10:30;;;;;;;6.88;4.80;;;19.10;50.40;;;;;;4944798;29;20196;-82
2023/03/24 04:13:07;;;;;;;5.57;4.50;;;19.10;50.40;;;;;;4949893;29;20187;-82
2023/03/24 04:16:05;;;;;;;5.85;4.85;;;19.10;50.50;;;;;;4955600;29;20223;-83
2023/03/24 04:18:59;;;;;;;5.90;4.70;;;19.10;50.50;;;;;;4956039;29;20247;-81
2023/03/24 04:21:33;;;;;;;5.38;4.60;;;19.10;51.10;;;;;;4987685;28;20278;-81
2023/03/24 04:24:11;;;;;;;5.60;4.60;;;19.10;50.40;;;;;;4955213;29;20238;-81
2023/03/24 04:26:41;;;;;;;5.82;4.50;;;19.10;50.40;;;;;;4955554;29;20196;-81
2023/03/24 04:29:12;;;;;;;6.93;4.93;;;19.10;50.50;;;;;;4977720;28;20307;-80
2023/03/24 04:31:41;;;;;;;5.82;4.70;;;19.10;50.70;;;;;;4973058;28;20191;-81
2023/03/24 04:34:12;;;;;;;5.53;4.47;;;19.20;50.80;;;;;;4940572;29;20219;-83
2023/03/24 04:36:42;;;;;;;7.55;4.82;;;19.20;50.70;;;;;;4936788;29;20198;-81
2023/03/24 04:39:27;;;;;;;6.82;4.93;;;19.20;50.70;;;;;;4936536;29;20226;-81
2023/03/24 04:41:59;;;;;;;6.57;4.38;;;19.20;50.60;;;;;;4969072;28;20203;-81
2023/03/24 04:44:27;;;;;;;6.13;4.60;;;19.30;50.70;;;;;;4969066;28;20216;-83
2023/03/24 04:47:13;;;;;;;5.35;4.20;;;19.30;50.50;;;;;;4937508;29;20270;-81
2023/03/24 04:49:51;;;;;;;6.22;4.95;;;19.30;50.40;;;;;;4936428;29;20235;-81
2023/03/24 04:52:19;;;;;;;6.10;4.55;;;19.30;50.40;;;;;;4968184;28;20229;-81
2023/03/24 04:54:47;;;;;;;6.68;4.70;;;19.30;50.30;;;;;;4936441;29;20223;-80
2023/03/24 04:57:16;;;;;;;4.97;4.38;;;19.30;50.30;;;;;;4936259;29;20682;-80
2023/03/24 04:59:46;;;;;;;7.70;5.13;;;19.40;50.30;;;;;;4936929;29;20207;-81
2023/03/24 05:02:15;;;;;;;6.65;4.88;;;19.40;50.10;;;;;;4936472;29;20206;-80
2023/03/24 05:04:54;;;;;;;6.47;4.50;;;19.40;49.90;;;;;;4954474;28;20242;-80
2023/03/24 05:07:36;;;;;;;4.70;4.30;;;19.50;49.80;;;;;;4954392;29;20255;-83
2023/03/24 05:10:09;;;;;;;5.68;4.28;;;19.50;50.40;;;;;;4941065;29;20211;-83
2023/03/24 05:12:43;;;;;;;5.38;4.10;;;19.50;49.80;;;;;;4957877;29;20674;-81
2023/03/24 05:15:45;;;;;;;5.28;4.10;;;19.50;49.80;;;;;;4940548;29;20195;-81
2023/03/24 05:18:23;;;;;;;5.53;4.28;;;19.50;49.80;;;;;;4975163;28;20250;-80
2023/03/24 05:20:52;;;;;;;5.20;4.15;;;19.50;49.70;;;;;;4941593;29;20199;-80
2023/03/24 05:23:21;;;;;;;5.70;4.28;;;19.50;49.80;;;;;;4941096;29;20223;-80
2023/03/24 05:25:49;;;;;;;4.97;4.15;;;19.50;49.80;;;;;;4973946;28;20670;-80
2023/03/24 05:28:18;;;;;;;5.07;4.18;;;19.50;49.80;;;;;;4972810;28;20209;-82
2023/03/24 05:30:45;;;;;;;5.13;4.18;;;19.50;49.80;;;;;;4940521;29;20203;-83
2023/03/24 05:33:22;;;;;;;5.28;4.28;;;19.50;49.80;;;;;;4939090;29;20215;-83
2023/03/24 05:35:51;;;;;;;4.85;3.75;;;19.50;49.80;;;;;;4939058;29;20200;-83
2023/03/24 05:38:19;;;;;;;4.95;4.15;;;19.50;49.80;;;;;;4938796;29;20203;-83
2023/03/24 05:40:50;;;;;;;5.70;4.10;;;19.50;49.80;;;;;;4971945;28;20251;-83
2023/03/24 05:43:18;;;;;;;4.93;4.03;;;19.50;49.80;;;;;;4939326;29;20223;-81
2023/03/24 05:45:58;;;;;;;4.63;3.97;;;19.50;49.80;;;;;;4971346;28;20199;-83
2023/03/24 05:48:30;;;;;;;5.60;4.13;;;19.50;49.90;;;;;;4940650;29;20218;-81
2023/03/24 05:51:12;;;;;;;5.82;3.97;;;19.50;49.90;;;;;;4939329;29;20210;-80
2023/03/24 05:53:39;;;;;;;4.78;3.63;;;19.50;50.00;;;;;;4971650;28;20247;-83
2023/03/24 05:56:14;;;;;;;5.15;4.10;;;19.50;49.90;;;;;;4940762;29;20721;-81
2023/03/24 05:58:59;;;;;;;4.65;3.80;;;19.50;50.00;;;;;;4941709;29;20191;-83
2023/03/24 06:01:47;;;;;;;4.07;3.60;;;19.50;50.00;;;;;;4968452;28;20242;-82
2023/03/24 06:04:21;;;;;;;5.25;4.20;;;19.60;50.10;;;;;;4941484;29;20239;-82
2023/03/24 06:06:54;;;;;;;4.63;3.70;;;19.60;50.20;;;;;;4973263;28;20215;-82
2023/03/24 06:09:28;;;;;;;3.80;3.33;;;19.60;50.20;;;;;;4941696;29;20275;-83
2023/03/24 06:11:55;;;;;;;5.03;3.78;;;19.60;50.80;;;;;;4972874;28;20658;-84
2023/03/24 06:14:23;;;;;;;4.30;3.90;;;19.60;50.50;;;;;;4939613;29;20310;-83
2023/03/24 06:17:00;;;;;;;4.65;3.40;;;19.60;50.60;;;;;;4941055;29;20205;-83
2023/03/24 06:19:29;;;;;;;3.72;3.20;;;19.60;50.90;;;;;;4955551;29;20195;-83
2023/03/24 06:22:18;;;;;;;4.22;3.47;;;19.60;51.10;;;;;;4940043;29;20321;-84
2023/03/24 06:24:48;;;;;;;4.03;3.63;;;19.60;51.40;;;;;;4941108;29;20219;-83
2023/03/24 06:27:17;;;;;;;5.22;3.60;;;19.60;51.60;;;;;;4940509;29;20282;-83
2023/03/24 06:29:45;;;;;;;3.42;3.13;;;19.60;51.50;;;;;;4939494;29;20558;-83
2023/03/24 06:32:15;;;;;;;4.55;3.60;;;19.60;51.40;;;;;;4970780;28;20203;-83
2023/03/24 06:34:42;;;;;;;5.10;3.58;;;19.70;51.80;;;;;;4938926;29;20222;-83
2023/03/24 06:37:21;;;;;;;5.55;3.35;;;19.60;51.70;;;;;;4939196;29;20195;-84
2023/03/24 06:39:48;;;;;;;4.13;3.53;;;19.70;51.80;;;;;;4971860;28;20620;-83
2023/03/24 06:42:18;;;;;;;5.78;3.42;;;19.70;51.80;;;;;;4939471;29;20320;-83
2023/03/24 06:44:46;;;;;;;4.10;3.30;;;19.70;51.60;;;;;;4954996;28;20230;-83
2023/03/24 06:47:14;;;;;;;3.63;3.08;;;19.70;51.70;;;;;;4938908;29;20202;-83
2023/03/24 06:49:41;;;;;;;3.53;3.13;;;19.70;51.80;;;;;;4939411;29;20220;-83
2023/03/24 06:52:09;;;;;;;4.25;3.53;;;19.70;51.60;;;;;;4937658;29;20203;-83
2023/03/24 06:54:41;;;;;;;4.13;3.65;;;19.70;51.60;;;;;;4937811;29;20219;-83
2023/03/24 06:57:09;;;;;;;4.47;3.22;;;19.70;51.40;;;;;;4938281;29;20262;-81
2023/03/24 06:59:55;;;;;;;3.65;3.25;;;19.70;51.30;;;;;;4939065;29;20541;-83
2023/03/24 07:02:23;;;;;;;3.70;3.15;;;19.80;51.50;;;;;;4937716;29;20223;-83
2023/03/24 07:04:54;;;;;;;5.43;3.20;;;19.80;51.50;;;;;;4937742;29;20220;-83
2023/03/24 07:07:36;;;;;;;4.15;3.45;;;19.80;51.40;;;;;;4971110;28;20191;-83
2023/03/24 07:10:43;;;;;;;3.53;3.20;;;19.80;51.20;;;;;;4939959;29;20310;-81
2023/03/24 07:13:11;;;;;;;4.22;3.83;;;19.80;51.20;;;;;;4955702;29;20206;-83
2023/03/24 07:15:40;;;;;;;4.10;3.40;;;19.90;51.20;;;;;;4938886;29;20247;-83
2023/03/24 07:18:09;;;;;;;4.57;3.65;;;19.80;51.00;;;;;;4939237;29;20281;-83
2023/03/24 07:20:44;;;;;;;3.80;3.25;;;19.90;51.00;;;;;;4939009;29;20246;-81
2023/03/24 07:23:13;;;;;;;4.93;3.60;;;19.90;50.90;;;;;;4977249;23;20316;-81
2023/03/24 07:26:01;;;;;;;5.13;3.83;;;19.90;50.80;;;;;;4976936;28;20190;-78
2023/03/24 07:28:49;;;;;;;5.10;3.42;;;19.90;50.70;;;;;;4975693;28;20198;-78
2023/03/24 07:31:40;;;;;;;5.07;3.47;;;19.90;50.80;;;;;;4976232;28;20202;-78
2023/03/24 07:34:10;;;;;;;5.22;3.60;;;20.00;50.70;;;;;;4976875;28;20222;-78
2023/03/24 07:36:39;;;;;;;7.03;3.75;;;20.00;50.60;;;;;;4976313;28;20569;-78
2023/03/24 07:39:12;;;;;;;4.63;3.38;;;20.00;50.60;;;;;;4960476;28;20198;-78
2023/03/24 07:41:41;;;;;;;4.93;3.58;;;20.00;50.60;;;;;;4975291;28;20297;-78
2023/03/24 07:44:17;;;;;;;5.32;3.58;;;20.00;50.70;;;;;;4961037;28;20245;-78
2023/03/24 07:46:53;;;;;;;4.97;3.60;;;20.10;50.90;;;;;;4975939;28;20186;-78
2023/03/24 07:49:23;;;;;;;6.10;3.42;;;20.10;50.80;;;;;;4959425;28;20221;-78
2023/03/24 07:52:05;;;;;;;4.95;3.63;;;20.10;50.90;;;;;;4961016;28;20194;-77
2023/03/24 07:54:38;;;;;;;5.03;3.80;;;20.10;50.80;;;;;;4975161;28;20268;-76
2023/03/24 07:57:07;;;;;;;4.38;3.70;;;20.00;50.80;;;;;;4975232;28;20636;-76
2023/03/24 07:59:35;;;;;;;3.78;3.00;;;20.10;50.90;;;;;;4975624;28;20604;-76
2023/03/24 08:02:18;;;;;;;4.13;3.53;;;20.00;51.10;;;;;;4963044;28;20194;-76
2023/03/24 08:04:53;;;;;;;4.60;3.30;;;20.10;51.20;;;;;;4963787;28;20246;-76
2023/03/24 08:07:41;;;;;;;4.55;3.40;;;20.00;51.20;;;;;;4977774;28;20494;-76
2023/03/24 08:10:09;;;;;;;5.05;3.42;;;20.10;51.30;;;;;;4959468;28;20225;-76
2023/03/24 08:12:38;;;;;;;5.18;3.30;;;20.00;51.10;;;;;;4960005;28;20210;-76
2023/03/24 08:15:06;;;;;;;5.70;3.30;;;20.10;51.20;;;;;;4975570;28;20235;-76
2023/03/24 08:17:33;;;;;;;5.30;3.10;;;20.10;51.00;;;;;;4975005;28;20206;-76
2023/03/24 08:20:00;;;;;;;3.17;2.88;;;20.10;51.10;;;;;;4980768;28;20231;-76
2023/03/24 08:22:27;;;;;;;4.00;3.53;;;20.10;51.10;;;;;;4989079;28;20216;-76
2023/03/24 08:24:54;;;;;;;4.03;3.10;;;20.10;51.00;;;;;;4975052;28;20276;-76
2023/03/24 08:27:22;;;;;;;3.63;3.05;;;20.10;51.00;;;;;;4974486;28;20289;-76
2023/03/24 08:29:50;;;;;;;4.30;3.13;;;20.10;51.00;;;;;;4974151;28;20228;-76
2023/03/24 08:32:18;;;;;;;3.53;3.20;;;20.10;50.90;;;;;;4974524;28;20202;-77
2023/03/24 08:34:45;;;;;;;4.88;2.88;;;20.10;50.90;;;;;;4974501;28;20221;-76
2023/03/24 08:37:12;;;;;;;5.15;2.97;;;20.10;50.90;;;;;;4973887;28;20198;-77
2023/03/24 08:39:39;;;;;;;4.47;3.28;;;20.10;50.90;;;;;;4974199;28;20509;-76
2023/03/24 08:42:07;;;;;;;4.25;3.00;;;20.20;51.10;;;;;;4974629;28;20209;-76
2023/03/24 08:44:33;;;;;;;4.10;3.25;;;20.20;50.90;;;;;;4974812;28;20218;-76
2023/03/24 08:47:02;;;;;;;5.32;3.38;;;20.20;50.80;;;;;;4974070;28;20382;-75
2023/03/24 08:49:29;;;;;;;8.68;4.28;;;20.20;50.80;;;;;;4973974;28;20229;-76
2023/03/24 08:51:56;;;;;;;8.27;4.07;;;20.20;50.90;;;;;;4973958;28;20206;-76
2023/03/24 08:54:25;;;;;;;9.60;4.25;;;20.20;51.10;;;;;;4973848;28;20245;-76
2023/03/24 08:56:52;;;;;;;7.05;4.18;;;20.20;51.20;;;;;;4973694;28;20198;-77
2023/03/24 08:59:19;;;;;;;8.23;4.05;;;20.20;51.40;;;;;;4973806;28;20661;-77
2023/03/24 09:01:47;;;;;;;6.63;3.60;;;20.20;51.40;;;;;;4973812;28;20204;-77
2023/03/24 09:04:15;;;;;;;6.75;3.95;;;20.20;51.60;;;;;;4957757;28;20221;-77
2023/03/24 09:06:42;;;;;;;6.85;3.85;;;20.20;51.50;;;;;;4973699;28;20212;-77
2023/03/24 09:09:10;;;;;;;5.50;3.35;;;20.20;51.60;;;;;;4973755;28;20209;-77
2023/03/24 09:11:37;;;;;;;5.15;3.33;;;20.20;51.50;;;;;;4974914;28;20301;-77
2023/03/24 09:14:04;;;;;;;5.55;3.40;;;20.30;51.50;;;;;;4973787;28;20723;-77
2023/03/24 09:16:31;;;;;;;5.32;3.38;;;20.20;51.10;;;;;;4973616;28;20198;-77
2023/03/24 09:18:58;;;;;;;5.55;3.40;;;20.30;50.70;;;;;;4973607;28;20315;-77
2023/03/24 09:21:26;;;;;;;7.32;3.70;;;20.30;50.50;;;;;;4973877;28;20241;-77
2023/03/24 09:23:54;;;;;;;5.10;3.28;;;20.40;52.00;;;;;;4974049;28;20264;-77
2023/03/24 09:26:22;;;;;;;5.40;3.25;;;20.40;53.20;;;;;;4973768;28;20252;-77
2023/03/24 09:28:49;;;;;;;6.68;3.78;;;20.50;52.10;;;;;;4973479;28;20202;-77
2023/03/24 09:31:16;;;;;;;5.60;3.30;;;20.60;51.70;;;;;;4973597;28;20224;-77
2023/03/24 09:33:43;;;;;;;5.18;3.28;;;20.60;51.50;;;;;;4973733;28;20689;-77
2023/03/24 09:36:11;;;;;;;4.53;3.13;;;20.70;51.30;;;;;;4974008;28;20639;-77
2023/03/24 09:38:40;;;;;;;5.45;3.40;;;20.70;51.00;;;;;;4974723;28;20198;-77
2023/03/24 09:41:14;;;;;;;3.10;2.65;;;20.80;50.90;;;;;;4973686;28;20217;-77
2023/03/24 09:43:43;;;;;;;4.00;2.90;;;20.80;50.90;;;;;;4974288;28;20257;-77
2023/03/24 09:46:12;;;;;;;4.90;3.10;;;20.90;50.90;;;;;;4973828;28;20194;-77
2023/03/24 09:48:40;;;;;;;4.80;3.10;;;20.90;50.60;;;;;;4973685;28;20222;-77
2023/03/24 09:51:09;;;;;;;4.90;3.15;;;21.00;50.30;;;;;;4977811;28;20224;-77
2023/03/24 09:53:40;;;;;;;4.85;3.30;;;21.00;50.40;;;;;;4977640;28;20600;-77
2023/03/24 09:56:12;;;;;;;4.32;3.20;;;21.00;50.40;;;;;;4979075;28;20201;-77
2023/03/24 09:58:40;;;;;;;3.22;2.70;;;21.10;50.20;;;;;;4979746;28;20265;-77
2023/03/24 10:01:13;;;;;;;4.47;3.20;;;21.20;50.40;;;;;;4977011;28;20245;-77
2023/03/24 10:03:41;;;;;;;3.85;3.15;;;21.20;50.30;;;;;;4977429;28;20316;-77
2023/03/24 10:06:09;;;;;;;3.70;2.92;;;21.30;50.10;;;;;;4977490;28;20198;-77
2023/03/24 10:08:37;;;;;;;3.65;2.95;;;21.30;49.90;;;;;;4977067;28;20202;-77
2023/03/24 10:11:07;;;;;;;4.97;2.92;;;21.30;49.90;;;;;;4976627;28;20243;-77
2023/03/24 10:13:44;;;;;;;3.58;2.88;;;21.40;49.60;;;;;;4976691;28;20313;-77
2023/03/24 10:16:13;;;;;;;4.80;3.03;;;21.50;49.50;;;;;;4977779;28;20221;-77
2023/03/24 10:18:42;;;;;;;4.57;3.00;;;21.50;49.20;;;;;;4978095;28;20186;-77
2023/03/24 10:21:13;;;;;;;4.00;3.20;;;21.60;49.00;;;;;;4976993;28;20198;-77
2023/03/24 10:23:43;;;;;;;4.72;3.30;;;21.60;49.00;;;;;;4976519;28;20237;-77
2023/03/24 10:26:17;;;;;;;3.78;2.88;;;21.60;48.80;;;;;;4976494;28;20206;-77
2023/03/24 10:28:45;;;;;;;4.18;3.00;;;21.60;48.70;;;;;;4976633;28;20194;-78
2023/03/24 10:31:14;;;;;;;4.50;2.95;;;21.60;48.70;;;;;;4976453;28;20222;-78
2023/03/24 10:33:43;;;;;;;3.20;2.90;;;21.70;48.80;;;;;;4976640;28;20642;-78
2023/03/24 10:36:12;;;;;;;5.38;3.30;;;21.70;48.70;;;;;;4977911;28;20249;-78
2023/03/24 10:38:39;;;;;;;3.70;2.75;;;21.70;48.40;;;;;;4960375;28;20293;-78
2023/03/24 10:41:07;;;;;;;3.97;2.83;;;21.70;48.40;;;;;;4975954;28;20569;-78
2023/03/24 10:43:35;;;;;;;3.75;2.90;;;21.70;48.30;;;;;;4975858;28;20241;-78
2023/03/24 10:46:03;;;;;;;3.42;2.60;;;21.70;48.20;;;;;;4975857;28;20576;-78
2023/03/24 10:48:41;;;;;;;4.53;2.90;;;21.70;48.10;;;;;;4959825;28;20233;-78
2023/03/24 10:51:14;;;;;;;3.60;2.50;;;21.70;48.10;;;;;;4975665;28;20249;-78
2023/03/24 10:53:41;;;;;;;4.35;2.97;;;21.70;48.10;;;;;;4976639;28;20681;-78
2023/03/24 10:56:09;;;;;;;4.40;2.75;;;21.70;48.00;;;;;;4975977;28;20297;-78
2023/03/24 10:58:39;;;;;;;3.78;2.90;;;21.70;48.10;;;;;;4975916;28;20210;-78
2023/03/24 11:01:09;;;;;;;4.85;2.80;;;21.70;48.00;;;;;;4974736;28;20225;-78
2023/03/24 11:03:36;;;;;;;3.22;2.60;;;21.70;48.00;;;;;;4975541;28;20759;-78
2023/03/24 11:06:05;;;;;;;4.03;2.88;;;21.70;48.00;;;;;;4975507;28;20202;-78
2023/03/24 11:08:34;;;;;;;3.38;2.53;;;21.80;48.00;;;;;;4975786;28;20583;-78
2023/03/24 11:11:02;;;;;;;2.97;2.60;;;21.70;47.80;;;;;;4976703;28;20355;-78
2023/03/24 11:13:31;;;;;;;3.83;3.08;;;21.70;47.80;;;;;;4975240;28;20633;-76
2023/03/24 11:16:09;;;;;;;3.20;2.90;;;21.70;47.80;;;;;;4975278;28;20206;-76
2023/03/24 11:18:36;;;;;;;3.03;2.70;;;21.80;47.90;;;;;;4975271;28;20205;-76
2023/03/24 11:21:03;;;;;;;3.60;2.60;;;21.80;47.90;;;;;;4975615;28;20190;-76
2023/03/24 11:23:31;;;;;;;3.97;2.63;;;21.80;47.90;;;;;;4975396;28;20222;-76
2023/03/24 11:26:05;;;;;;;2.72;2.42;;;21.80;47.70;;;;;;4975139;28;20288;-77
2023/03/24 11:28:36;;;;;;;4.68;2.90;;;21.90;47.80;;;;;;4976397;28;20245;-77
2023/03/24 11:31:29;;;;;;;3.00;2.53;;;21.90;47.70;;;;;;4977064;28;20451;-77
2023/03/24 11:33:58;;;;;;;3.60;2.70;;;21.90;47.70;;;;;;4975362;28;20321;-77
2023/03/24 11:36:47;;;;;;;3.67;2.75;;;22.00;47.60;;;;;;4974928;28;20202;-77
2023/03/24 11:39:17;;;;;;;3.08;2.42;;;21.90;47.50;;;;;;4974751;28;20202;-77
2023/03/24 11:41:50;;;;;;;2.38;2.15;;;21.90;47.30;;;;;;4974808;28;20281;-77
2023/03/24 11:44:19;;;;;;;2.47;2.28;;;21.90;47.40;;;;;;4975074;28;20605;-77
2023/03/24 11:46:50;;;;;;;2.60;2.40;;;22.00;47.50;;;;;;4974883;28;20636;-77
2023/03/24 11:49:18;;;;;;;2.85;2.53;;;22.00;47.50;;;;;;4974764;28;20201;-77
2023/03/24 11:51:47;;;;;;;2.50;2.30;;;22.00;47.40;;;;;;4974790;28;20309;-77
2023/03/24 11:54:14;;;;;;;3.47;2.45;;;22.00;47.40;;;;;;4975927;28;20276;-77
2023/03/24 11:56:43;;;;;;;3.67;2.60;;;22.00;47.40;;;;;;4974994;28;20568;-77
2023/03/24 11:59:26;;;;;;;3.13;2.50;;;22.00;47.40;;;;;;4976206;28;20268;-77
2023/03/24 12:01:58;;;;;;;2.95;2.60;;;22.00;47.40;;;;;;4974870;28;20241;-77
2023/03/24 12:04:30;;;;;;;3.28;2.58;;;22.00;47.40;;;;;;4975877;28;20218;-77
2023/03/24 12:07:08;;;;;;;2.88;2.55;;;22.00;47.40;;;;;;4975119;28;20194;-77
2023/03/24 12:09:36;;;;;;;3.55;2.55;;;22.10;47.50;;;;;;4975321;28;20663;-77
2023/03/24 12:12:15;;;;;;;2.58;2.30;;;22.10;47.30;;;;;;4974311;28;20692;-77
2023/03/24 12:14:50;;;;;;;2.45;2.15;;;22.10;47.10;;;;;;4974329;28;20221;-77
2023/03/24 12:17:21;;;;;;;2.60;2.38;;;22.10;47.20;;;;;;4975068;28;20193;-77
2023/03/24 12:20:06;;;;;;;2.20;2.00;;;22.20;47.00;;;;;;4978932;28;20194;-77
2023/03/24 12:22:43;;;;;;;3.08;2.17;;;22.20;47.00;;;;;;4968340;28;20210;-77
2023/03/24 12:25:24;;;;;;;2.40;2.20;;;22.20;46.90;;;;;;4974682;28;20229;-77
2023/03/24 12:27:54;;;;;;;2.45;2.00;;;22.20;46.90;;;;;;4974351;28;20199;-77
2023/03/24 12:30:26;;;;;;;2.95;2.30;;;22.10;46.90;;;;;;4973994;28;20206;-77
2023/03/24 12:33:03;;;;;;;2.42;2.22;;;22.10;46.90;;;;;;4974180;28;20205;-77
2023/03/24 12:35:42;;;;;;;2.33;1.85;;;22.20;46.90;;;;;;4974055;28;20193;-77
2023/03/24 12:38:33;;;;;;;3.05;2.30;;;22.20;46.90;;;;;;4974183;28;20293;-77
2023/03/24 12:41:38;;;;;;;2.50;2.20;;;22.20;46.90;;;;;;4974264;28;20198;-77
2023/03/24 12:44:28;;;;;;;3.38;2.33;;;22.10;46.80;;;;;;4974447;28;20267;-77
2023/03/24 12:46:58;;;;;;;2.47;2.25;;;22.20;46.90;;;;;;4973860;28;20649;-77
2023/03/24 12:49:37;;;;;;;1.98;1.80;;;22.20;46.90;;;;;;4974336;28;20202;-77
2023/03/24 12:52:15;;;;;;;2.65;2.20;;;22.20;46.80;;;;;;4974785;28;20207;-77
2023/03/24 12:54:46;;;;;;;3.22;2.28;;;22.20;46.90;;;;;;4973606;28;20878;-77
2023/03/24 12:57:14;;;;;;;2.17;1.95;;;22.10;46.70;;;;;;4974516;28;20225;-77
2023/03/24 12:59:43;;;;;;;2.40;2.20;;;22.10;46.80;;;;;;4957863;28;20202;-77
2023/03/24 13:02:16;;;;;;;2.55;2.08;;;22.10;46.70;;;;;;4973729;28;20233;-77
2023/03/24 13:04:44;;;;;;;2.92;2.03;;;22.10;46.70;;;;;;4973729;28;20225;-77
2023/03/24 13:07:13;;;;;;;2.35;1.85;;;22.10;46.70;;;;;;4973772;28;20202;-77
2023/03/24 13:09:45;;;;;;;2.20;2.00;;;22.10;46.70;;;;;;4973992;28;20286;-77
2023/03/24 13:12:13;;;;;;;2.22;2.03;;;22.10;46.80;;;;;;4974416;28;20214;-77
2023/03/24 13:14:48;;;;;;;1.92;1.67;;;22.10;46.80;;;;;;4973810;28;20218;-77